sensor_id;sensor_type;location;lat;lon;timestamp;temperature;humidity
13245;DHT22;6689;53.400;12.486;2023-02-07T00:01:10;-0.60;99.90
13245;DHT22;6689;53.400;12.486;2023-02-07T00:03:38;-0.70;99.90
13245;DHT22;6689;53.400;12.486;2023-02-07T00:06:07;-0.60;99.90
13245;DHT22;6689;53.400;12.486;2023-02-07T00:08:37;-0.70;99.90
13245;DHT22;6689;53.400;12.486;2023-02-07T00:11:05;-0.70;99.90
13245;DHT22;6689;53.400;12.486;2023-02-07T00:13:34;-0.70;99.90
13245;DHT22;6689;53.400;12.486;2023-02-07T00:16:01;-0.70;99.90
13245;DHT22;6689;53.400;12.486;2023-02-07T00:18:29;-0.80;99.90
13245;DHT22;6689;53.400;12.486;2023-02-07T00:20:58;-0.80;99.90
13245;DHT22;6689;53.400;12.486;2023-02-07T00:23:25;-0.80;99.90
13245;DHT22;6689;53.400;12.486;2023-02-07T00:25:54;-0.80;99.90
13245;DHT22;6689;53.400;12.486;2023-02-07T00:28:21;-0.80;99.90
13245;DHT22;6689;53.400;12.486;2023-02-07T00:30:49;-0.80;99.90
13245;DHT22;6689;53.400;12.486;2023-02-07T00:33:17;-0.90;99.90
13245;DHT22;6689;53.400;12.486;2023-02-07T00:35:44;-0.90;99.90
13245;DHT22;6689;53.400;12.486;2023-02-07T00:38:11;-1.00;99.90
13245;DHT22;6689;53.400;12.486;2023-02-07T00:40:39;-0.90;99.90
13245;DHT22;6689;53.400;12.486;2023-02-07T00:43:07;-0.70;99.90
13245;DHT22;6689;53.400;12.486;2023-02-07T00:45:35;-0.90;99.90
13245;DHT22;6689;53.400;12.486;2023-02-07T00:48:03;-0.90;99.90
13245;DHT22;6689;53.400;12.486;2023-02-07T00:50:30;-0.90;99.90
13245;DHT22;6689;53.400;12.486;2023-02-07T00:52:58;-0.90;99.90
13245;DHT22;6689;53.400;12.486;2023-02-07T00:55:25;-1.00;99.90
13245;DHT22;6689;53.400;12.486;2023-02-07T00:57:52;-1.00;99.90
13245;DHT22;6689;53.400;12.486;2023-02-07T01:00:22;-1.00;99.90
13245;DHT22;6689;53.400;12.486;2023-02-07T01:02:49;-1.00;99.90
13245;DHT22;6689;53.400;12.486;2023-02-07T01:05:17;-1.10;99.90
13245;DHT22;6689;53.400;12.486;2023-02-07T01:07:45;-1.10;99.90
13245;DHT22;6689;53.400;12.486;2023-02-07T01:10:12;-1.10;99.90
13245;DHT22;6689;53.400;12.486;2023-02-07T01:12:40;-1.10;99.90
13245;DHT22;6689;53.400;12.486;2023-02-07T01:15:07;-1.20;99.90
13245;DHT22;6689;53.400;12.486;2023-02-07T01:17:36;-1.20;99.90
13245;DHT22;6689;53.400;12.486;2023-02-07T01:20:04;-1.20;99.90
13245;DHT22;6689;53.400;12.486;2023-02-07T01:22:31;-1.20;99.90
13245;DHT22;6689;53.400;12.486;2023-02-07T01:24:59;-1.30;99.90
13245;DHT22;6689;53.400;12.486;2023-02-07T01:27:26;-1.20;99.90
13245;DHT22;6689;53.400;12.486;2023-02-07T01:29:54;-1.30;99.90
13245;DHT22;6689;53.400;12.486;2023-02-07T01:32:21;-1.30;99.90
13245;DHT22;6689;53.400;12.486;2023-02-07T01:34:49;-1.20;99.90
13245;DHT22;6689;53.400;12.486;2023-02-07T01:37:17;-1.30;99.90
13245;DHT22;6689;53.400;12.486;2023-02-07T01:39:46;-1.30;99.90
13245;DHT22;6689;53.400;12.486;2023-02-07T01:42:14;-1.30;99.90
13245;DHT22;6689;53.400;12.486;2023-02-07T01:45:15;-1.30;99.90
13245;DHT22;6689;53.400;12.486;2023-02-07T01:47:45;-1.40;99.90
13245;DHT22;6689;53.400;12.486;2023-02-07T01:50:14;-1.40;99.90
13245;DHT22;6689;53.400;12.486;2023-02-07T01:52:41;-1.40;99.90
13245;DHT22;6689;53.400;12.486;2023-02-07T01:55:14;-1.50;99.90
13245;DHT22;6689;53.400;12.486;2023-02-07T01:57:44;-1.40;99.90
13245;DHT22;6689;53.400;12.486;2023-02-07T02:00:13;-1.40;99.90
13245;DHT22;6689;53.400;12.486;2023-02-07T02:02:42;-1.40;99.90
13245;DHT22;6689;53.400;12.486;2023-02-07T02:05:11;-1.40;99.90
13245;DHT22;6689;53.400;12.486;2023-02-07T02:07:41;-1.50;99.90
13245;DHT22;6689;53.400;12.486;2023-02-07T02:10:13;-1.50;99.90
13245;DHT22;6689;53.400;12.486;2023-02-07T02:15:42;-1.50;99.90
13245;DHT22;6689;53.400;12.486;2023-02-07T02:18:34;-1.50;99.90
13245;DHT22;6689;53.400;12.486;2023-02-07T02:21:32;-1.60;99.90
13245;DHT22;6689;53.400;12.486;2023-02-07T02:24:21;-1.60;99.90
13245;DHT22;6689;53.400;12.486;2023-02-07T02:26:58;-1.60;99.90
13245;DHT22;6689;53.400;12.486;2023-02-07T02:32:47;-1.70;99.90
13245;DHT22;6689;53.400;12.486;2023-02-07T02:35:21;-1.70;99.90
13245;DHT22;6689;53.400;12.486;2023-02-07T02:37:55;-1.70;99.90
13245;DHT22;6689;53.400;12.486;2023-02-07T02:40:26;-1.60;99.90
13245;DHT22;6689;53.400;12.486;2023-02-07T02:43:01;-1.70;99.90
13245;DHT22;6689;53.400;12.486;2023-02-07T02:45:33;-1.70;99.90
13245;DHT22;6689;53.400;12.486;2023-02-07T02:48:05;-1.50;99.90
13245;DHT22;6689;53.400;12.486;2023-02-07T02:50:34;-1.80;99.90
13245;DHT22;6689;53.400;12.486;2023-02-07T02:53:01;-1.80;99.90
13245;DHT22;6689;53.400;12.486;2023-02-07T02:55:44;-1.80;99.90
13245;DHT22;6689;53.400;12.486;2023-02-07T02:58:24;-1.80;99.90
13245;DHT22;6689;53.400;12.486;2023-02-07T03:01:01;-1.80;99.90
13245;DHT22;6689;53.400;12.486;2023-02-07T03:03:54;-1.80;99.90
13245;DHT22;6689;53.400;12.486;2023-02-07T03:06:34;-1.80;99.90
13245;DHT22;6689;53.400;12.486;2023-02-07T03:09:11;-1.80;99.90
13245;DHT22;6689;53.400;12.486;2023-02-07T03:11:50;-1.90;99.90
13245;DHT22;6689;53.400;12.486;2023-02-07T03:14:27;-2.00;99.90
13245;DHT22;6689;53.400;12.486;2023-02-07T03:17:03;-2.00;99.90
13245;DHT22;6689;53.400;12.486;2023-02-07T03:19:38;-1.90;99.90
13245;DHT22;6689;53.400;12.486;2023-02-07T03:22:09;-1.90;99.90
13245;DHT22;6689;53.400;12.486;2023-02-07T03:24:41;-1.90;99.90
13245;DHT22;6689;53.400;12.486;2023-02-07T03:27:13;-1.90;99.90
13245;DHT22;6689;53.400;12.486;2023-02-07T03:29:44;-1.90;99.90
13245;DHT22;6689;53.400;12.486;2023-02-07T03:32:13;-2.00;99.90
13245;DHT22;6689;53.400;12.486;2023-02-07T03:34:50;-2.00;99.90
13245;DHT22;6689;53.400;12.486;2023-02-07T03:37:21;-2.00;99.90
13245;DHT22;6689;53.400;12.486;2023-02-07T03:39:51;-2.10;99.90
13245;DHT22;6689;53.400;12.486;2023-02-07T03:42:24;-2.10;99.90
13245;DHT22;6689;53.400;12.486;2023-02-07T03:44:54;-2.10;99.90
13245;DHT22;6689;53.400;12.486;2023-02-07T03:47:24;-2.10;99.90
13245;DHT22;6689;53.400;12.486;2023-02-07T03:49:54;-2.00;99.90
13245;DHT22;6689;53.400;12.486;2023-02-07T03:52:25;-2.10;99.90
13245;DHT22;6689;53.400;12.486;2023-02-07T03:54:53;-2.10;99.90
13245;DHT22;6689;53.400;12.486;2023-02-07T03:57:20;-2.00;99.90
13245;DHT22;6689;53.400;12.486;2023-02-07T03:59:49;-2.00;99.90
13245;DHT22;6689;53.400;12.486;2023-02-07T04:02:17;-2.00;99.90
13245;DHT22;6689;53.400;12.486;2023-02-07T04:04:44;-2.00;99.90
13245;DHT22;6689;53.400;12.486;2023-02-07T04:07:13;-2.00;99.90
13245;DHT22;6689;53.400;12.486;2023-02-07T04:09:40;-2.10;99.90
13245;DHT22;6689;53.400;12.486;2023-02-07T04:12:07;-2.10;99.90
13245;DHT22;6689;53.400;12.486;2023-02-07T04:14:34;-2.10;99.90
13245;DHT22;6689;53.400;12.486;2023-02-07T04:17:02;-2.10;99.90
13245;DHT22;6689;53.400;12.486;2023-02-07T04:19:29;-2.10;99.90
13245;DHT22;6689;53.400;12.486;2023-02-07T04:21:57;-2.20;99.90
13245;DHT22;6689;53.400;12.486;2023-02-07T04:24:26;-2.20;99.90
13245;DHT22;6689;53.400;12.486;2023-02-07T04:26:56;-2.20;99.90
13245;DHT22;6689;53.400;12.486;2023-02-07T04:29:24;-2.20;99.90
13245;DHT22;6689;53.400;12.486;2023-02-07T04:31:51;-2.20;99.90
13245;DHT22;6689;53.400;12.486;2023-02-07T04:34:18;-2.20;99.90
13245;DHT22;6689;53.400;12.486;2023-02-07T04:36:46;-2.30;99.90
13245;DHT22;6689;53.400;12.486;2023-02-07T04:39:13;-2.30;99.90
13245;DHT22;6689;53.400;12.486;2023-02-07T04:41:42;-2.30;99.90
13245;DHT22;6689;53.400;12.486;2023-02-07T04:44:09;-2.30;99.90
13245;DHT22;6689;53.400;12.486;2023-02-07T04:46:36;-2.30;99.90
13245;DHT22;6689;53.400;12.486;2023-02-07T04:49:04;-2.30;99.90
13245;DHT22;6689;53.400;12.486;2023-02-07T04:51:31;-2.30;99.90
13245;DHT22;6689;53.400;12.486;2023-02-07T04:53:59;-2.40;99.90
13245;DHT22;6689;53.400;12.486;2023-02-07T04:56:26;-2.40;99.90
13245;DHT22;6689;53.400;12.486;2023-02-07T04:58:55;-2.40;99.90
13245;DHT22;6689;53.400;12.486;2023-02-07T05:01:22;-2.40;99.90
13245;DHT22;6689;53.400;12.486;2023-02-07T05:03:49;-2.40;99.90
13245;DHT22;6689;53.400;12.486;2023-02-07T05:06:17;-2.50;99.90
13245;DHT22;6689;53.400;12.486;2023-02-07T05:08:45;-2.50;99.90
13245;DHT22;6689;53.400;12.486;2023-02-07T05:11:12;-2.60;99.90
13245;DHT22;6689;53.400;12.486;2023-02-07T05:13:40;-2.60;99.90
13245;DHT22;6689;53.400;12.486;2023-02-07T05:16:09;-2.60;99.90
13245;DHT22;6689;53.400;12.486;2023-02-07T05:18:36;-2.60;99.90
13245;DHT22;6689;53.400;12.486;2023-02-07T05:21:03;-2.60;99.90
13245;DHT22;6689;53.400;12.486;2023-02-07T05:23:31;-2.60;99.90
13245;DHT22;6689;53.400;12.486;2023-02-07T05:25:58;-2.50;99.90
13245;DHT22;6689;53.400;12.486;2023-02-07T05:28:26;-2.50;99.90
13245;DHT22;6689;53.400;12.486;2023-02-07T05:30:54;-2.50;99.90
13245;DHT22;6689;53.400;12.486;2023-02-07T05:33:24;-2.50;99.90
13245;DHT22;6689;53.400;12.486;2023-02-07T05:35:50;-2.50;99.90
13245;DHT22;6689;53.400;12.486;2023-02-07T05:38:19;-2.50;99.90
13245;DHT22;6689;53.400;12.486;2023-02-07T05:40:47;-2.50;99.90
13245;DHT22;6689;53.400;12.486;2023-02-07T05:43:15;-2.50;99.90
13245;DHT22;6689;53.400;12.486;2023-02-07T05:45:42;-2.60;99.90
13245;DHT22;6689;53.400;12.486;2023-02-07T05:48:11;-2.70;99.90
13245;DHT22;6689;53.400;12.486;2023-02-07T05:50:41;-2.70;99.90
13245;DHT22;6689;53.400;12.486;2023-02-07T05:53:09;-2.70;99.90
13245;DHT22;6689;53.400;12.486;2023-02-07T05:55:37;-2.70;99.90
13245;DHT22;6689;53.400;12.486;2023-02-07T05:58:08;-2.70;99.90
13245;DHT22;6689;53.400;12.486;2023-02-07T06:00:35;-2.80;99.90
13245;DHT22;6689;53.400;12.486;2023-02-07T06:03:02;-2.80;99.90
13245;DHT22;6689;53.400;12.486;2023-02-07T06:05:29;-2.90;99.90
13245;DHT22;6689;53.400;12.486;2023-02-07T06:08:01;-2.70;99.90
13245;DHT22;6689;53.400;12.486;2023-02-07T06:10:28;-2.80;99.90
13245;DHT22;6689;53.400;12.486;2023-02-07T06:12:56;-2.80;99.90
13245;DHT22;6689;53.400;12.486;2023-02-07T06:15:26;-2.90;99.90
13245;DHT22;6689;53.400;12.486;2023-02-07T06:17:53;-2.90;99.90
13245;DHT22;6689;53.400;12.486;2023-02-07T06:20:20;-2.90;99.90
13245;DHT22;6689;53.400;12.486;2023-02-07T06:22:48;-2.90;99.90
13245;DHT22;6689;53.400;12.486;2023-02-07T06:25:16;-2.90;99.90
13245;DHT22;6689;53.400;12.486;2023-02-07T06:27:44;-2.90;99.90
13245;DHT22;6689;53.400;12.486;2023-02-07T06:30:12;-2.90;99.90
13245;DHT22;6689;53.400;12.486;2023-02-07T06:32:39;-2.90;99.90
13245;DHT22;6689;53.400;12.486;2023-02-07T06:35:07;-2.90;99.90
13245;DHT22;6689;53.400;12.486;2023-02-07T06:37:35;-2.90;99.90
13245;DHT22;6689;53.400;12.486;2023-02-07T06:40:03;-2.80;99.90
13245;DHT22;6689;53.400;12.486;2023-02-07T06:42:33;-2.80;99.90
13245;DHT22;6689;53.400;12.486;2023-02-07T06:45:01;-2.70;99.90
13245;DHT22;6689;53.400;12.486;2023-02-07T06:47:28;-2.80;99.90
13245;DHT22;6689;53.400;12.486;2023-02-07T06:49:55;-2.80;1.40
13245;DHT22;6689;53.400;12.486;2023-02-07T06:52:23;-2.70;99.90
13245;DHT22;6689;53.400;12.486;2023-02-07T06:54:50;-2.70;1.40
13245;DHT22;6689;53.400;12.486;2023-02-07T06:57:17;-2.70;1.00
13245;DHT22;6689;53.400;12.486;2023-02-07T06:59:46;-2.70;1.00
13245;DHT22;6689;53.400;12.486;2023-02-07T07:02:14;-2.60;1.00
13245;DHT22;6689;53.400;12.486;2023-02-07T07:04:41;-2.60;1.00
13245;DHT22;6689;53.400;12.486;2023-02-07T07:07:09;-2.60;1.00
13245;DHT22;6689;53.400;12.486;2023-02-07T07:09:36;-2.60;1.00
13245;DHT22;6689;53.400;12.486;2023-02-07T07:12:05;-2.50;1.00
13245;DHT22;6689;53.400;12.486;2023-02-07T07:14:33;-2.50;99.90
13245;DHT22;6689;53.400;12.486;2023-02-07T07:17:02;-2.50;99.90
13245;DHT22;6689;53.400;12.486;2023-02-07T07:19:29;-2.50;99.90
13245;DHT22;6689;53.400;12.486;2023-02-07T07:21:56;-2.50;99.90
13245;DHT22;6689;53.400;12.486;2023-02-07T07:24:24;-2.50;99.90
13245;DHT22;6689;53.400;12.486;2023-02-07T07:26:51;-2.40;99.90
13245;DHT22;6689;53.400;12.486;2023-02-07T07:29:20;-2.40;99.90
13245;DHT22;6689;53.400;12.486;2023-02-07T07:31:47;-2.40;99.90
13245;DHT22;6689;53.400;12.486;2023-02-07T07:34:16;-2.40;99.90
13245;DHT22;6689;53.400;12.486;2023-02-07T07:36:44;-2.30;99.90
13245;DHT22;6689;53.400;12.486;2023-02-07T07:39:11;-2.30;99.90
13245;DHT22;6689;53.400;12.486;2023-02-07T07:41:39;-2.20;99.90
13245;DHT22;6689;53.400;12.486;2023-02-07T07:44:07;-2.20;99.90
13245;DHT22;6689;53.400;12.486;2023-02-07T07:46:34;-2.20;99.90
13245;DHT22;6689;53.400;12.486;2023-02-07T07:49:02;-2.20;1.00
13245;DHT22;6689;53.400;12.486;2023-02-07T07:51:31;-2.20;1.00
13245;DHT22;6689;53.400;12.486;2023-02-07T07:53:58;-2.20;1.00
13245;DHT22;6689;53.400;12.486;2023-02-07T07:56:25;-2.20;1.00
13245;DHT22;6689;53.400;12.486;2023-02-07T07:58:54;-2.10;1.00
13245;DHT22;6689;53.400;12.486;2023-02-07T08:01:21;-2.10;1.00
13245;DHT22;6689;53.400;12.486;2023-02-07T08:03:49;-2.10;1.00
13245;DHT22;6689;53.400;12.486;2023-02-07T08:06:16;-2.00;1.00
13245;DHT22;6689;53.400;12.486;2023-02-07T08:08:45;-1.90;1.00
13245;DHT22;6689;53.400;12.486;2023-02-07T08:11:13;-1.90;1.00
13245;DHT22;6689;53.400;12.486;2023-02-07T08:13:40;-1.80;1.00
13245;DHT22;6689;53.400;12.486;2023-02-07T08:16:10;-1.80;1.00
13245;DHT22;6689;53.400;12.486;2023-02-07T08:18:37;-1.70;1.00
13245;DHT22;6689;53.400;12.486;2023-02-07T08:21:08;-1.60;1.00
13245;DHT22;6689;53.400;12.486;2023-02-07T08:23:37;-1.60;1.00
13245;DHT22;6689;53.400;12.486;2023-02-07T08:26:06;-1.50;1.00
13245;DHT22;6689;53.400;12.486;2023-02-07T08:28:34;-1.40;1.00
13245;DHT22;6689;53.400;12.486;2023-02-07T08:31:01;-1.40;1.00
13245;DHT22;6689;53.400;12.486;2023-02-07T08:33:29;-1.10;1.00
13245;DHT22;6689;53.400;12.486;2023-02-07T08:35:56;-0.90;1.00
13245;DHT22;6689;53.400;12.486;2023-02-07T08:38:25;-0.10;1.00
13245;DHT22;6689;53.400;12.486;2023-02-07T08:40:52;0.30;1.00
13245;DHT22;6689;53.400;12.486;2023-02-07T08:43:22;0.00;1.00
13245;DHT22;6689;53.400;12.486;2023-02-07T08:45:49;-0.20;1.00
13245;DHT22;6689;53.400;12.486;2023-02-07T08:48:17;-0.30;1.00
13245;DHT22;6689;53.400;12.486;2023-02-07T08:50:44;-0.40;1.00
13245;DHT22;6689;53.400;12.486;2023-02-07T08:53:12;-0.40;1.00
13245;DHT22;6689;53.400;12.486;2023-02-07T08:55:39;-0.40;1.00
13245;DHT22;6689;53.400;12.486;2023-02-07T08:58:08;-0.40;1.00
13245;DHT22;6689;53.400;12.486;2023-02-07T09:00:37;-0.40;1.00
13245;DHT22;6689;53.400;12.486;2023-02-07T09:03:05;-0.30;1.00
13245;DHT22;6689;53.400;12.486;2023-02-07T09:05:32;-0.30;1.00
13245;DHT22;6689;53.400;12.486;2023-02-07T09:08:00;-0.20;1.00
13245;DHT22;6689;53.400;12.486;2023-02-07T09:10:28;-0.10;1.00
13245;DHT22;6689;53.400;12.486;2023-02-07T09:12:55;0.00;1.00
13245;DHT22;6689;53.400;12.486;2023-02-07T09:15:23;0.10;1.00
13245;DHT22;6689;53.400;12.486;2023-02-07T09:17:52;0.10;1.00
13245;DHT22;6689;53.400;12.486;2023-02-07T09:20:20;0.20;1.00
13245;DHT22;6689;53.400;12.486;2023-02-07T09:22:47;0.30;1.00
13245;DHT22;6689;53.400;12.486;2023-02-07T09:25:32;0.40;1.00
13245;DHT22;6689;53.400;12.486;2023-02-07T09:27:59;0.50;1.00
13245;DHT22;6689;53.400;12.486;2023-02-07T09:30:27;0.60;1.00
13245;DHT22;6689;53.400;12.486;2023-02-07T09:33:08;0.60;1.00
13245;DHT22;6689;53.400;12.486;2023-02-07T09:35:36;0.70;1.00
13245;DHT22;6689;53.400;12.486;2023-02-07T09:38:05;0.80;1.00
13245;DHT22;6689;53.400;12.486;2023-02-07T09:40:33;0.80;1.00
13245;DHT22;6689;53.400;12.486;2023-02-07T09:43:09;0.90;1.00
13245;DHT22;6689;53.400;12.486;2023-02-07T09:45:41;1.00;1.00
13245;DHT22;6689;53.400;12.486;2023-02-07T09:48:15;1.00;1.00
13245;DHT22;6689;53.400;12.486;2023-02-07T09:50:47;1.10;1.00
13245;DHT22;6689;53.400;12.486;2023-02-07T09:53:22;1.10;1.00
13245;DHT22;6689;53.400;12.486;2023-02-07T09:55:54;1.20;1.00
13245;DHT22;6689;53.400;12.486;2023-02-07T09:58:29;1.30;1.00
13245;DHT22;6689;53.400;12.486;2023-02-07T10:01:02;1.40;1.00
13245;DHT22;6689;53.400;12.486;2023-02-07T10:03:32;1.50;1.00
13245;DHT22;6689;53.400;12.486;2023-02-07T10:06:04;1.60;1.00
13245;DHT22;6689;53.400;12.486;2023-02-07T10:08:33;1.70;1.00
13245;DHT22;6689;53.400;12.486;2023-02-07T10:11:09;1.70;1.00
13245;DHT22;6689;53.400;12.486;2023-02-07T10:14:00;1.80;1.00
13245;DHT22;6689;53.400;12.486;2023-02-07T10:16:45;1.90;99.90
13245;DHT22;6689;53.400;12.486;2023-02-07T10:19:27;2.00;1.00
13245;DHT22;6689;53.400;12.486;2023-02-07T10:22:03;2.10;99.90
13245;DHT22;6689;53.400;12.486;2023-02-07T10:24:50;2.10;99.90
13245;DHT22;6689;53.400;12.486;2023-02-07T10:27:28;2.20;99.90
13245;DHT22;6689;53.400;12.486;2023-02-07T10:30:03;2.40;99.90
13245;DHT22;6689;53.400;12.486;2023-02-07T10:32:36;2.50;99.90
13245;DHT22;6689;53.400;12.486;2023-02-07T10:35:15;2.60;99.90
13245;DHT22;6689;53.400;12.486;2023-02-07T10:37:44;2.70;99.90
13245;DHT22;6689;53.400;12.486;2023-02-07T10:40:15;2.70;99.90
13245;DHT22;6689;53.400;12.486;2023-02-07T10:42:49;2.80;99.90
13245;DHT22;6689;53.400;12.486;2023-02-07T10:45:18;2.90;99.90
13245;DHT22;6689;53.400;12.486;2023-02-07T10:47:45;3.00;99.90
13245;DHT22;6689;53.400;12.486;2023-02-07T10:50:16;3.10;99.90
13245;DHT22;6689;53.400;12.486;2023-02-07T10:52:49;3.20;99.90
13245;DHT22;6689;53.400;12.486;2023-02-07T10:55:18;3.30;99.90
13245;DHT22;6689;53.400;12.486;2023-02-07T10:57:52;3.30;99.90
13245;DHT22;6689;53.400;12.486;2023-02-07T11:00:26;3.40;99.90
13245;DHT22;6689;53.400;12.486;2023-02-07T11:02:55;3.50;99.90
13245;DHT22;6689;53.400;12.486;2023-02-07T11:05:34;3.60;99.90
13245;DHT22;6689;53.400;12.486;2023-02-07T11:08:04;3.70;99.90
13245;DHT22;6689;53.400;12.486;2023-02-07T11:10:35;3.70;99.90
13245;DHT22;6689;53.400;12.486;2023-02-07T11:13:04;3.80;99.90
13245;DHT22;6689;53.400;12.486;2023-02-07T11:15:38;3.80;99.90
13245;DHT22;6689;53.400;12.486;2023-02-07T11:18:25;3.90;99.90
13245;DHT22;6689;53.400;12.486;2023-02-07T11:20:55;3.90;99.90
13245;DHT22;6689;53.400;12.486;2023-02-07T11:23:23;4.10;99.90
13245;DHT22;6689;53.400;12.486;2023-02-07T11:25:53;4.10;99.90
13245;DHT22;6689;53.400;12.486;2023-02-07T11:28:24;4.30;99.90
13245;DHT22;6689;53.400;12.486;2023-02-07T11:30:54;4.30;99.90
13245;DHT22;6689;53.400;12.486;2023-02-07T11:33:25;4.40;99.90
13245;DHT22;6689;53.400;12.486;2023-02-07T11:36:21;4.40;99.90
13245;DHT22;6689;53.400;12.486;2023-02-07T11:38:55;4.30;99.90
13245;DHT22;6689;53.400;12.486;2023-02-07T11:41:29;4.30;99.90
13245;DHT22;6689;53.400;12.486;2023-02-07T11:43:58;4.40;99.90
13245;DHT22;6689;53.400;12.486;2023-02-07T11:46:38;4.40;99.90
13245;DHT22;6689;53.400;12.486;2023-02-07T11:49:16;4.50;99.90
13245;DHT22;6689;53.400;12.486;2023-02-07T11:51:49;4.50;99.90
13245;DHT22;6689;53.400;12.486;2023-02-07T11:54:17;4.50;99.90
13245;DHT22;6689;53.400;12.486;2023-02-07T11:56:49;4.50;99.90
13245;DHT22;6689;53.400;12.486;2023-02-07T11:59:20;4.50;99.90
13245;DHT22;6689;53.400;12.486;2023-02-07T12:01:49;4.60;99.90
13245;DHT22;6689;53.400;12.486;2023-02-07T12:04:19;4.50;99.90
13245;DHT22;6689;53.400;12.486;2023-02-07T12:06:52;4.60;99.90
13245;DHT22;6689;53.400;12.486;2023-02-07T12:09:31;4.60;99.90
13245;DHT22;6689;53.400;12.486;2023-02-07T12:12:01;4.60;99.90
13245;DHT22;6689;53.400;12.486;2023-02-07T12:14:33;4.70;99.90
13245;DHT22;6689;53.400;12.486;2023-02-07T12:17:04;4.70;99.90
13245;DHT22;6689;53.400;12.486;2023-02-07T12:19:37;4.60;99.90
13245;DHT22;6689;53.400;12.486;2023-02-07T12:22:14;4.60;99.90
13245;DHT22;6689;53.400;12.486;2023-02-07T12:24:47;4.60;99.90
13245;DHT22;6689;53.400;12.486;2023-02-07T12:27:18;4.70;99.90
13245;DHT22;6689;53.400;12.486;2023-02-07T12:29:55;4.70;99.90
13245;DHT22;6689;53.400;12.486;2023-02-07T12:32:31;4.70;99.90
13245;DHT22;6689;53.400;12.486;2023-02-07T12:35:09;4.70;99.90
13245;DHT22;6689;53.400;12.486;2023-02-07T12:37:42;4.70;99.90
13245;DHT22;6689;53.400;12.486;2023-02-07T12:40:17;4.60;99.90
13245;DHT22;6689;53.400;12.486;2023-02-07T12:42:50;4.60;99.90
13245;DHT22;6689;53.400;12.486;2023-02-07T12:45:43;4.70;99.90
13245;DHT22;6689;53.400;12.486;2023-02-07T12:48:23;4.70;99.90
13245;DHT22;6689;53.400;12.486;2023-02-07T12:51:06;4.70;99.90
13245;DHT22;6689;53.400;12.486;2023-02-07T12:53:54;4.80;99.90
13245;DHT22;6689;53.400;12.486;2023-02-07T12:56:38;4.70;99.90
13245;DHT22;6689;53.400;12.486;2023-02-07T12:59:15;4.70;99.90
13245;DHT22;6689;53.400;12.486;2023-02-07T13:01:48;4.80;99.90
13245;DHT22;6689;53.400;12.486;2023-02-07T13:07:25;4.90;99.90
13245;DHT22;6689;53.400;12.486;2023-02-07T13:10:08;4.90;99.90
13245;DHT22;6689;53.400;12.486;2023-02-07T13:12:42;4.90;99.90
13245;DHT22;6689;53.400;12.486;2023-02-07T13:15:20;5.00;99.90
13245;DHT22;6689;53.400;12.486;2023-02-07T13:17:53;5.00;99.90
13245;DHT22;6689;53.400;12.486;2023-02-07T13:20:48;4.90;99.90
13245;DHT22;6689;53.400;12.486;2023-02-07T13:23:19;5.00;99.90
13245;DHT22;6689;53.400;12.486;2023-02-07T13:25:51;5.00;99.90
13245;DHT22;6689;53.400;12.486;2023-02-07T13:28:22;5.00;99.90
13245;DHT22;6689;53.400;12.486;2023-02-07T13:30:52;5.00;99.90
13245;DHT22;6689;53.400;12.486;2023-02-07T13:33:31;5.00;99.90
13245;DHT22;6689;53.400;12.486;2023-02-07T13:36:04;5.10;99.90
13245;DHT22;6689;53.400;12.486;2023-02-07T13:38:44;5.10;99.90
13245;DHT22;6689;53.400;12.486;2023-02-07T13:41:22;5.00;99.90
13245;DHT22;6689;53.400;12.486;2023-02-07T13:43:59;5.10;99.90
13245;DHT22;6689;53.400;12.486;2023-02-07T13:46:45;5.00;99.90
13245;DHT22;6689;53.400;12.486;2023-02-07T13:49:28;5.00;99.90
13245;DHT22;6689;53.400;12.486;2023-02-07T13:52:03;5.10;99.90
13245;DHT22;6689;53.400;12.486;2023-02-07T13:54:38;5.10;99.90
13245;DHT22;6689;53.400;12.486;2023-02-07T13:57:19;5.00;99.90
13245;DHT22;6689;53.400;12.486;2023-02-07T14:00:18;5.00;99.90
13245;DHT22;6689;53.400;12.486;2023-02-07T14:02:48;5.00;99.90
13245;DHT22;6689;53.400;12.486;2023-02-07T14:05:22;5.00;99.90
13245;DHT22;6689;53.400;12.486;2023-02-07T14:07:55;5.00;99.90
13245;DHT22;6689;53.400;12.486;2023-02-07T14:10:41;4.90;99.90
13245;DHT22;6689;53.400;12.486;2023-02-07T14:13:33;4.90;99.90
13245;DHT22;6689;53.400;12.486;2023-02-07T14:16:04;4.90;99.90
13245;DHT22;6689;53.400;12.486;2023-02-07T14:18:43;4.90;99.90
13245;DHT22;6689;53.400;12.486;2023-02-07T14:21:31;4.90;99.90
13245;DHT22;6689;53.400;12.486;2023-02-07T14:24:17;4.90;99.90
13245;DHT22;6689;53.400;12.486;2023-02-07T14:30:12;4.90;99.90
13245;DHT22;6689;53.400;12.486;2023-02-07T14:32:43;4.90;97.40
13245;DHT22;6689;53.400;12.486;2023-02-07T14:35:32;4.90;97.50
13245;DHT22;6689;53.400;12.486;2023-02-07T14:38:09;4.80;87.40
13245;DHT22;6689;53.400;12.486;2023-02-07T14:40:51;4.80;99.90
13245;DHT22;6689;53.400;12.486;2023-02-07T14:43:32;4.70;99.90
13245;DHT22;6689;53.400;12.486;2023-02-07T14:46:07;4.70;90.80
13245;DHT22;6689;53.400;12.486;2023-02-07T14:48:44;4.70;92.60
13245;DHT22;6689;53.400;12.486;2023-02-07T14:51:16;4.70;89.60
13245;DHT22;6689;53.400;12.486;2023-02-07T14:53:57;4.70;97.00
13245;DHT22;6689;53.400;12.486;2023-02-07T14:56:36;4.60;97.30
13245;DHT22;6689;53.400;12.486;2023-02-07T14:59:07;4.50;70.40
13245;DHT22;6689;53.400;12.486;2023-02-07T15:01:37;4.50;91.30
13245;DHT22;6689;53.400;12.486;2023-02-07T15:04:06;4.50;82.70
13245;DHT22;6689;53.400;12.486;2023-02-07T15:06:38;4.50;87.80
13245;DHT22;6689;53.400;12.486;2023-02-07T15:09:10;4.40;78.50
13245;DHT22;6689;53.400;12.486;2023-02-07T15:11:43;4.40;97.80
13245;DHT22;6689;53.400;12.486;2023-02-07T15:14:19;4.40;97.40
13245;DHT22;6689;53.400;12.486;2023-02-07T15:16:49;4.30;91.60
13245;DHT22;6689;53.400;12.486;2023-02-07T15:19:21;4.30;79.70
13245;DHT22;6689;53.400;12.486;2023-02-07T15:21:49;4.30;97.40
13245;DHT22;6689;53.400;12.486;2023-02-07T15:24:20;4.30;92.40
13245;DHT22;6689;53.400;12.486;2023-02-07T15:26:54;4.20;85.50
13245;DHT22;6689;53.400;12.486;2023-02-07T15:29:24;4.20;94.80
13245;DHT22;6689;53.400;12.486;2023-02-07T15:31:53;4.20;74.50
13245;DHT22;6689;53.400;12.486;2023-02-07T15:34:21;4.20;94.30
13245;DHT22;6689;53.400;12.486;2023-02-07T15:36:50;4.10;93.70
13245;DHT22;6689;53.400;12.486;2023-02-07T15:39:19;4.10;86.50
13245;DHT22;6689;53.400;12.486;2023-02-07T15:41:48;4.10;93.90
13245;DHT22;6689;53.400;12.486;2023-02-07T15:44:21;4.10;91.60
13245;DHT22;6689;53.400;12.486;2023-02-07T15:46:50;4.00;93.20
13245;DHT22;6689;53.400;12.486;2023-02-07T15:49:37;4.00;97.80
13245;DHT22;6689;53.400;12.486;2023-02-07T15:52:12;4.00;99.90
13245;DHT22;6689;53.400;12.486;2023-02-07T15:54:44;3.90;99.90
13245;DHT22;6689;53.400;12.486;2023-02-07T15:57:19;3.60;99.90
13245;DHT22;6689;53.400;12.486;2023-02-07T15:59:51;3.70;99.90
13245;DHT22;6689;53.400;12.486;2023-02-07T16:02:24;3.70;99.90
13245;DHT22;6689;53.400;12.486;2023-02-07T16:04:53;3.60;99.90
13245;DHT22;6689;53.400;12.486;2023-02-07T16:07:21;3.50;99.90
13245;DHT22;6689;53.400;12.486;2023-02-07T16:09:50;3.50;99.90
13245;DHT22;6689;53.400;12.486;2023-02-07T16:12:44;3.40;99.90
13245;DHT22;6689;53.400;12.486;2023-02-07T16:15:23;3.40;99.90
13245;DHT22;6689;53.400;12.486;2023-02-07T16:17:51;3.30;99.90
13245;DHT22;6689;53.400;12.486;2023-02-07T16:20:20;3.20;99.90